Main page
Satellite images 15-day forecastsClimateMarine weather Cyclones Lightning AirportsFAQ Newsletter About
Weather : Europe Africa North America South America Asia Australia-Oceania Others
Languages Contact

Mexicali, Mexico

General Rodolfo Sánchez Taboada

latitude: 32-37-50N, longitude: 115-14-30W, elevation: 22 m


METAR: MMML 010440Z 06004KT 10SM FEW070 FEW200 23/16 A2975 RMK 8/072
TAF: MMML 311658Z 3118/0118 14015KT P6SM SCT020 BECMG 0103/0104 00000KT FM011500 20010KT P6SM SCT030

Time: 23:11 (05:11 UTC)

Current weather observation

The report was made 31 minutes ago, at 04:40 UTC
Wind 4 kt from the East/Northeast
Temperature 23°C
Humidity 65%
Pressure 1007 hPa
Visibility: 16.1 km
Few clouds at a height of 7000 ft
Few clouds at a height of 20000 ft

Change units

Forecast

The report was made 12 hours and 13 minutes ago, at 16:58 UTC
Forecast valid from 31 at 18 UTC to 01 at 18 UTC
Wind 15 kt from the Southeast
Visibility: 10 km
Scattered clouds at a height of 2000 ft
Becoming
from 01 at 03 UTC to 01 at 04 UTC
Wind kt from the North
From 01 at 1500 UTC
Wind 10 kt from the South/Southwest
Visibility: 10 km
Scattered clouds at a height of 3000 ft
The information on this site is subject to a disclaimer
Weather : Europe Africa North America South America Asia Australia-Oceania Others
Satellite images 15-day forecastsClimateMarine weather Cyclones Lightning AirportsFAQ Languages Contact Newsletter About